Goss, Missouri
Current Conditions -  °F | °C
As of 2:55 AM on Monday 24 Nov 2014 (Local Time) from KIRK Reporting Station
Overcast Overcast  
Wind Chill: 23°   Ceiling: 2400
Heat Index: 34°   Visibility: 10mi
Dew Point: 31°   Wind: 20mph
Humidity: 89%   Direction: 300°WNW
Pressure: 29.39"   Gusts: 26mph
Location:  39.5207°N, 92.0162°W
Report Text: KIRK 240855Z AUTO 30017G23KT 10SM OVC024 01/M01 A2939 RMK AO2 SNE04 SLP957 P0000 60013 T00111006 53012
Loading
Personal Weather Stations






























Interactive Weather Map New forecast layout! Learn more

10-Day Weather Forecast

Advertisements
Track Severe Weather on mobile